sensor_id;sensor_type;location;lat;lon;timestamp;pressure;altitude;pressure_sealevel;temperature;humidity
12054;BME280;5638;50.860;4.698;2022-10-16T00:01:28;100630.66;;;14.80;nan
12054;BME280;5638;50.860;4.698;2022-10-16T00:03:56;100624.06;;;14.70;nan
12054;BME280;5638;50.860;4.698;2022-10-16T00:06:23;100616.22;;;14.72;nan
12054;BME280;5638;50.860;4.698;2022-10-16T00:08:50;100617.63;;;14.80;nan
12054;BME280;5638;50.860;4.698;2022-10-16T00:13:51;100621.88;;;14.83;nan
12054;BME280;5638;50.860;4.698;2022-10-16T00:16:18;100631.28;;;14.87;nan
12054;BME280;5638;50.860;4.698;2022-10-16T00:18:45;100625.88;;;14.68;nan
12054;BME280;5638;50.860;4.698;2022-10-16T00:21:15;100639.91;;;14.64;nan
12054;BME280;5638;50.860;4.698;2022-10-16T00:23:41;100632.53;;;14.50;nan
12054;BME280;5638;50.860;4.698;2022-10-16T00:26:12;100638.91;;;14.68;nan
12054;BME280;5638;50.860;4.698;2022-10-16T00:28:39;100626.88;;;14.64;nan
12054;BME280;5638;50.860;4.698;2022-10-16T00:31:08;100639.09;;;14.62;nan
12054;BME280;5638;50.860;4.698;2022-10-16T00:33:35;100631.78;;;14.47;nan
12054;BME280;5638;50.860;4.698;2022-10-16T00:36:03;100640.25;;;14.53;nan
12054;BME280;5638;50.860;4.698;2022-10-16T00:38:29;100642.38;;;14.67;nan
12054;BME280;5638;50.860;4.698;2022-10-16T00:40:56;100625.06;;;14.66;nan
12054;BME280;5638;50.860;4.698;2022-10-16T00:43:40;100639.91;;;14.64;nan
12054;BME280;5638;50.860;4.698;2022-10-16T00:46:22;100636.13;;;14.46;nan
12054;BME280;5638;50.860;4.698;2022-10-16T00:51:39;100644.81;;;14.47;nan
12054;BME280;5638;50.860;4.698;2022-10-16T00:54:33;100638.09;;;14.39;nan
12054;BME280;5638;50.860;4.698;2022-10-16T00:57:06;100645.09;;;14.37;nan
12054;BME280;5638;50.860;4.698;2022-10-16T00:59:39;100637.34;;;14.36;nan
12054;BME280;5638;50.860;4.698;2022-10-16T01:02:09;100643.94;;;14.46;nan
12054;BME280;5638;50.860;4.698;2022-10-16T01:04:40;100636.25;;;14.43;nan
12054;BME280;5638;50.860;4.698;2022-10-16T01:08:03;100644.06;;;14.43;nan
12054;BME280;5638;50.860;4.698;2022-10-16T01:13:21;100653.50;;;14.45;nan
12054;BME280;5638;50.860;4.698;2022-10-16T01:15:55;100652.13;;;14.35;nan
12054;BME280;5638;50.860;4.698;2022-10-16T01:18:45;100648.41;;;14.42;nan
12054;BME280;5638;50.860;4.698;2022-10-16T01:21:24;100645.16;;;14.36;nan
12054;BME280;5638;50.860;4.698;2022-10-16T01:24:33;100657.31;;;14.35;nan
12054;BME280;5638;50.860;4.698;2022-10-16T01:29:34;100651.00;;;14.16;nan
12054;BME280;5638;50.860;4.698;2022-10-16T01:32:27;100644.47;;;14.31;nan
12054;BME280;5638;50.860;4.698;2022-10-16T01:35:05;100644.22;;;14.38;nan
12054;BME280;5638;50.860;4.698;2022-10-16T01:38:41;100656.78;;;14.26;nan
12054;BME280;5638;50.860;4.698;2022-10-16T01:41:24;100634.69;;;14.11;nan
12054;BME280;5638;50.860;4.698;2022-10-16T01:44:32;100634.59;;;14.14;nan
12054;BME280;5638;50.860;4.698;2022-10-16T01:47:00;100624.59;;;14.28;nan
12054;BME280;5638;50.860;4.698;2022-10-16T01:49:33;100628.44;;;14.16;nan
12054;BME280;5638;50.860;4.698;2022-10-16T01:52:06;100627.19;;;14.28;nan
12054;BME280;5638;50.860;4.698;2022-10-16T01:54:37;100633.59;;;14.18;nan
12054;BME280;5638;50.860;4.698;2022-10-16T01:57:07;100628.50;;;14.15;nan
12054;BME280;5638;50.860;4.698;2022-10-16T01:59:42;100631.31;;;14.09;nan
12054;BME280;5638;50.860;4.698;2022-10-16T02:02:11;100634.16;;;14.28;nan
12054;BME280;5638;50.860;4.698;2022-10-16T02:04:46;100627.41;;;14.22;nan
12054;BME280;5638;50.860;4.698;2022-10-16T02:07:13;100643.97;;;14.19;nan
12054;BME280;5638;50.860;4.698;2022-10-16T02:09:40;100638.16;;;14.11;nan
12054;BME280;5638;50.860;4.698;2022-10-16T02:12:36;100653.00;;;14.08;nan
12054;BME280;5638;50.860;4.698;2022-10-16T02:15:06;100654.31;;;14.21;nan
12054;BME280;5638;50.860;4.698;2022-10-16T02:17:32;100644.16;;;14.13;nan
12054;BME280;5638;50.860;4.698;2022-10-16T02:20:00;100644.31;;;14.09;nan
12054;BME280;5638;50.860;4.698;2022-10-16T02:22:47;100649.63;;;14.06;nan
12054;BME280;5638;50.860;4.698;2022-10-16T02:25:35;100640.13;;;14.05;nan
12054;BME280;5638;50.860;4.698;2022-10-16T02:28:11;100641.13;;;14.01;nan
12054;BME280;5638;50.860;4.698;2022-10-16T02:30:48;100647.94;;;14.03;nan
12054;BME280;5638;50.860;4.698;2022-10-16T02:33:16;100642.28;;;14.17;nan
12054;BME280;5638;50.860;4.698;2022-10-16T02:35:46;100654.66;;;14.10;nan
12054;BME280;5638;50.860;4.698;2022-10-16T02:38:16;100655.81;;;14.02;nan
12054;BME280;5638;50.860;4.698;2022-10-16T02:40:43;100654.16;;;13.99;nan
12054;BME280;5638;50.860;4.698;2022-10-16T02:43:10;100647.00;;;14.06;nan
12054;BME280;5638;50.860;4.698;2022-10-16T02:45:37;100649.78;;;14.00;nan
12054;BME280;5638;50.860;4.698;2022-10-16T02:48:03;100649.00;;;13.98;nan
12054;BME280;5638;50.860;4.698;2022-10-16T02:50:29;100659.56;;;13.93;nan
12054;BME280;5638;50.860;4.698;2022-10-16T02:52:54;100657.72;;;13.97;nan
12054;BME280;5638;50.860;4.698;2022-10-16T02:55:20;100661.81;;;14.04;nan
12054;BME280;5638;50.860;4.698;2022-10-16T02:57:46;100662.78;;;14.00;nan
12054;BME280;5638;50.860;4.698;2022-10-16T03:00:15;100676.63;;;14.02;nan
12054;BME280;5638;50.860;4.698;2022-10-16T03:02:42;100676.72;;;13.99;nan
12054;BME280;5638;50.860;4.698;2022-10-16T03:05:09;100669.28;;;14.14;nan
12054;BME280;5638;50.860;4.698;2022-10-16T03:07:35;100672.03;;;14.10;nan
12054;BME280;5638;50.860;4.698;2022-10-16T03:10:01;100663.31;;;14.11;nan
12054;BME280;5638;50.860;4.698;2022-10-16T03:12:28;100668.03;;;14.26;nan
12054;BME280;5638;50.860;4.698;2022-10-16T03:14:55;100679.28;;;14.27;nan
12054;BME280;5638;50.860;4.698;2022-10-16T03:17:23;100682.34;;;14.13;nan
12054;BME280;5638;50.860;4.698;2022-10-16T03:19:49;100687.56;;;14.11;nan
12054;BME280;5638;50.860;4.698;2022-10-16T03:22:15;100694.06;;;14.26;nan
12054;BME280;5638;50.860;4.698;2022-10-16T03:24:41;100682.72;;;14.01;nan
12054;BME280;5638;50.860;4.698;2022-10-16T03:27:07;100703.63;;;13.98;nan
12054;BME280;5638;50.860;4.698;2022-10-16T03:29:33;100697.28;;;14.06;nan
12054;BME280;5638;50.860;4.698;2022-10-16T03:32:00;100708.75;;;14.01;nan
12054;BME280;5638;50.860;4.698;2022-10-16T03:34:26;100696.22;;;14.12;nan
12054;BME280;5638;50.860;4.698;2022-10-16T03:36:52;100694.31;;;14.17;nan
12054;BME280;5638;50.860;4.698;2022-10-16T03:39:18;100694.28;;;13.92;nan
12054;BME280;5638;50.860;4.698;2022-10-16T03:41:44;100710.97;;;14.13;nan
12054;BME280;5638;50.860;4.698;2022-10-16T03:44:12;100701.59;;;14.07;nan
12054;BME280;5638;50.860;4.698;2022-10-16T03:46:38;100693.03;;;14.04;nan
12054;BME280;5638;50.860;4.698;2022-10-16T03:49:04;100685.06;;;14.08;nan
12054;BME280;5638;50.860;4.698;2022-10-16T03:51:30;100682.91;;;13.94;nan
12054;BME280;5638;50.860;4.698;2022-10-16T03:53:56;100682.16;;;13.91;nan
12054;BME280;5638;50.860;4.698;2022-10-16T03:56:22;100696.44;;;14.06;nan
12054;BME280;5638;50.860;4.698;2022-10-16T03:58:48;100705.25;;;14.02;nan
12054;BME280;5638;50.860;4.698;2022-10-16T04:01:14;100704.28;;;14.04;nan
12054;BME280;5638;50.860;4.698;2022-10-16T04:03:40;100701.97;;;13.95;nan
12054;BME280;5638;50.860;4.698;2022-10-16T04:06:05;100696.63;;;14.00;nan
12054;BME280;5638;50.860;4.698;2022-10-16T04:08:31;100685.72;;;13.88;nan
12054;BME280;5638;50.860;4.698;2022-10-16T04:11:00;100701.25;;;13.90;nan
12054;BME280;5638;50.860;4.698;2022-10-16T04:13:27;100721.75;;;14.01;nan
12054;BME280;5638;50.860;4.698;2022-10-16T04:15:52;100726.31;;;13.92;nan
12054;BME280;5638;50.860;4.698;2022-10-16T04:18:18;100727.19;;;13.91;nan
12054;BME280;5638;50.860;4.698;2022-10-16T04:20:44;100726.50;;;13.86;nan
12054;BME280;5638;50.860;4.698;2022-10-16T04:23:10;100736.91;;;13.86;nan
12054;BME280;5638;50.860;4.698;2022-10-16T04:25:36;100734.16;;;13.91;nan
12054;BME280;5638;50.860;4.698;2022-10-16T04:28:02;100735.00;;;13.91;nan
12054;BME280;5638;50.860;4.698;2022-10-16T04:30:28;100734.03;;;13.95;nan
12054;BME280;5638;50.860;4.698;2022-10-16T04:32:54;100738.72;;;14.12;nan
12054;BME280;5638;50.860;4.698;2022-10-16T04:35:21;100738.22;;;14.00;nan
12054;BME280;5638;50.860;4.698;2022-10-16T04:37:47;100750.31;;;14.02;nan
12054;BME280;5638;50.860;4.698;2022-10-16T04:40:14;100751.22;;;14.00;nan
12054;BME280;5638;50.860;4.698;2022-10-16T04:42:40;100753.19;;;13.93;nan
12054;BME280;5638;50.860;4.698;2022-10-16T04:45:07;100754.97;;;13.91;nan
12054;BME280;5638;50.860;4.698;2022-10-16T04:47:33;100764.50;;;13.92;nan
12054;BME280;5638;50.860;4.698;2022-10-16T04:49:59;100744.00;;;13.81;nan
12054;BME280;5638;50.860;4.698;2022-10-16T04:52:26;100762.91;;;13.86;nan
12054;BME280;5638;50.860;4.698;2022-10-16T04:54:52;100770.41;;;13.97;nan
12054;BME280;5638;50.860;4.698;2022-10-16T04:57:19;100774.41;;;14.09;nan
12054;BME280;5638;50.860;4.698;2022-10-16T04:59:45;100760.72;;;14.02;nan
12054;BME280;5638;50.860;4.698;2022-10-16T05:02:11;100767.13;;;13.90;nan
12054;BME280;5638;50.860;4.698;2022-10-16T05:04:36;100768.19;;;13.83;nan
12054;BME280;5638;50.860;4.698;2022-10-16T05:07:02;100775.91;;;13.86;nan
12054;BME280;5638;50.860;4.698;2022-10-16T05:09:28;100789.38;;;14.01;nan
12054;BME280;5638;50.860;4.698;2022-10-16T05:11:54;100778.22;;;13.95;nan
12054;BME280;5638;50.860;4.698;2022-10-16T05:14:19;100775.06;;;13.86;nan
12054;BME280;5638;50.860;4.698;2022-10-16T05:16:45;100793.91;;;13.94;nan
12054;BME280;5638;50.860;4.698;2022-10-16T05:19:13;100787.28;;;13.84;nan
12054;BME280;5638;50.860;4.698;2022-10-16T05:21:42;100802.47;;;13.98;nan
12054;BME280;5638;50.860;4.698;2022-10-16T05:24:07;100809.72;;;13.86;nan
12054;BME280;5638;50.860;4.698;2022-10-16T05:26:34;100818.41;;;13.85;nan
12054;BME280;5638;50.860;4.698;2022-10-16T05:29:00;100813.56;;;13.73;nan
12054;BME280;5638;50.860;4.698;2022-10-16T05:31:26;100818.97;;;13.65;nan
12054;BME280;5638;50.860;4.698;2022-10-16T05:33:58;100820.66;;;13.68;nan
12054;BME280;5638;50.860;4.698;2022-10-16T05:36:23;100829.88;;;13.78;nan
12054;BME280;5638;50.860;4.698;2022-10-16T05:38:51;100829.63;;;13.87;nan
12054;BME280;5638;50.860;4.698;2022-10-16T05:41:17;100800.00;;;13.62;nan
12054;BME280;5638;50.860;4.698;2022-10-16T05:43:50;100817.06;;;13.72;nan
12054;BME280;5638;50.860;4.698;2022-10-16T05:46:16;100839.34;;;13.81;nan
12054;BME280;5638;50.860;4.698;2022-10-16T05:48:43;100836.44;;;13.91;nan
12054;BME280;5638;50.860;4.698;2022-10-16T05:51:14;100840.00;;;13.89;nan
12054;BME280;5638;50.860;4.698;2022-10-16T05:53:41;100827.16;;;13.83;nan
12054;BME280;5638;50.860;4.698;2022-10-16T05:56:10;100830.78;;;13.77;nan
12054;BME280;5638;50.860;4.698;2022-10-16T05:58:38;100826.44;;;13.78;nan
12054;BME280;5638;50.860;4.698;2022-10-16T06:01:17;100843.16;;;13.69;nan
12054;BME280;5638;50.860;4.698;2022-10-16T06:03:44;100835.63;;;13.58;nan
12054;BME280;5638;50.860;4.698;2022-10-16T06:06:19;100829.81;;;13.49;nan
12054;BME280;5638;50.860;4.698;2022-10-16T06:08:47;100827.34;;;13.44;nan
12054;BME280;5638;50.860;4.698;2022-10-16T06:11:23;100853.22;;;13.81;nan
12054;BME280;5638;50.860;4.698;2022-10-16T06:13:55;100849.25;;;13.66;nan
12054;BME280;5638;50.860;4.698;2022-10-16T06:16:24;100854.47;;;13.66;nan
12054;BME280;5638;50.860;4.698;2022-10-16T06:18:55;100862.25;;;13.68;nan
12054;BME280;5638;50.860;4.698;2022-10-16T06:21:26;100865.94;;;13.59;nan
12054;BME280;5638;50.860;4.698;2022-10-16T06:23:54;100860.00;;;13.54;nan
12054;BME280;5638;50.860;4.698;2022-10-16T06:26:25;100858.88;;;13.64;nan
12054;BME280;5638;50.860;4.698;2022-10-16T06:28:51;100872.91;;;13.57;nan
12054;BME280;5638;50.860;4.698;2022-10-16T06:31:17;100868.69;;;13.53;nan
12054;BME280;5638;50.860;4.698;2022-10-16T06:33:43;100871.03;;;13.64;nan
12054;BME280;5638;50.860;4.698;2022-10-16T06:36:14;100871.66;;;13.72;nan
12054;BME280;5638;50.860;4.698;2022-10-16T06:38:42;100874.09;;;13.78;nan
12054;BME280;5638;50.860;4.698;2022-10-16T06:41:12;100874.25;;;13.72;nan
12054;BME280;5638;50.860;4.698;2022-10-16T06:43:38;100877.00;;;13.67;nan
12054;BME280;5638;50.860;4.698;2022-10-16T06:46:07;100881.22;;;13.72;nan
12054;BME280;5638;50.860;4.698;2022-10-16T06:48:35;100889.03;;;13.72;nan
12054;BME280;5638;50.860;4.698;2022-10-16T06:51:23;100895.22;;;13.66;nan
12054;BME280;5638;50.860;4.698;2022-10-16T06:53:53;100899.69;;;13.61;nan
12054;BME280;5638;50.860;4.698;2022-10-16T06:56:26;100907.41;;;13.64;nan
12054;BME280;5638;50.860;4.698;2022-10-16T06:58:53;100909.50;;;13.82;nan
12054;BME280;5638;50.860;4.698;2022-10-16T07:01:22;100912.94;;;13.84;nan
12054;BME280;5638;50.860;4.698;2022-10-16T07:03:49;100921.78;;;13.77;nan
12054;BME280;5638;50.860;4.698;2022-10-16T07:06:19;100921.13;;;13.69;nan
12054;BME280;5638;50.860;4.698;2022-10-16T07:08:47;100936.50;;;14.11;nan
12054;BME280;5638;50.860;4.698;2022-10-16T07:11:20;100943.00;;;13.94;nan
12054;BME280;5638;50.860;4.698;2022-10-16T07:13:47;100937.06;;;13.89;nan
12054;BME280;5638;50.860;4.698;2022-10-16T07:16:16;100942.28;;;13.89;nan
12054;BME280;5638;50.860;4.698;2022-10-16T07:18:44;100946.31;;;14.01;nan
12054;BME280;5638;50.860;4.698;2022-10-16T07:21:13;100954.88;;;14.05;nan
12054;BME280;5638;50.860;4.698;2022-10-16T07:23:40;100961.44;;;14.18;nan
12054;BME280;5638;50.860;4.698;2022-10-16T07:26:07;100964.19;;;14.13;nan
12054;BME280;5638;50.860;4.698;2022-10-16T07:28:33;100978.00;;;14.15;nan
12054;BME280;5638;50.860;4.698;2022-10-16T07:31:05;100975.75;;;14.34;nan
12054;BME280;5638;50.860;4.698;2022-10-16T07:33:34;100978.16;;;14.40;nan
12054;BME280;5638;50.860;4.698;2022-10-16T07:36:01;100996.13;;;14.51;nan
12054;BME280;5638;50.860;4.698;2022-10-16T07:38:26;100990.56;;;14.63;nan
12054;BME280;5638;50.860;4.698;2022-10-16T07:41:02;100993.84;;;14.70;nan
12054;BME280;5638;50.860;4.698;2022-10-16T07:43:29;100998.91;;;14.75;nan
12054;BME280;5638;50.860;4.698;2022-10-16T07:45:56;101016.00;;;14.83;nan
12054;BME280;5638;50.860;4.698;2022-10-16T07:48:23;101016.78;;;14.87;nan
12054;BME280;5638;50.860;4.698;2022-10-16T07:50:50;101015.19;;;15.11;nan
12054;BME280;5638;50.860;4.698;2022-10-16T07:53:15;101013.72;;;15.02;nan
12054;BME280;5638;50.860;4.698;2022-10-16T07:55:42;101028.84;;;15.19;nan
12054;BME280;5638;50.860;4.698;2022-10-16T07:58:09;101029.84;;;15.15;nan
12054;BME280;5638;50.860;4.698;2022-10-16T08:00:37;101038.38;;;15.20;nan
12054;BME280;5638;50.860;4.698;2022-10-16T08:03:03;101034.00;;;15.20;nan
12054;BME280;5638;50.860;4.698;2022-10-16T08:05:32;101044.75;;;15.38;nan
12054;BME280;5638;50.860;4.698;2022-10-16T08:07:59;101035.09;;;15.41;nan
12054;BME280;5638;50.860;4.698;2022-10-16T08:10:27;101047.94;;;15.48;nan
12054;BME280;5638;50.860;4.698;2022-10-16T08:12:53;101046.84;;;15.55;nan
12054;BME280;5638;50.860;4.698;2022-10-16T08:15:20;101052.66;;;15.64;nan
12054;BME280;5638;50.860;4.698;2022-10-16T08:17:58;101044.44;;;15.77;nan
12054;BME280;5638;50.860;4.698;2022-10-16T08:20:27;101057.69;;;15.97;nan
12054;BME280;5638;50.860;4.698;2022-10-16T08:22:53;101055.69;;;16.30;nan
12054;BME280;5638;50.860;4.698;2022-10-16T08:25:21;101056.69;;;16.26;nan
12054;BME280;5638;50.860;4.698;2022-10-16T08:27:47;101055.34;;;16.39;nan
12054;BME280;5638;50.860;4.698;2022-10-16T08:30:14;101062.69;;;16.53;nan
12054;BME280;5638;50.860;4.698;2022-10-16T08:32:40;101059.91;;;16.58;nan
12054;BME280;5638;50.860;4.698;2022-10-16T08:35:11;101060.06;;;16.78;nan
12054;BME280;5638;50.860;4.698;2022-10-16T08:37:38;101060.09;;;17.02;nan
12054;BME280;5638;50.860;4.698;2022-10-16T08:40:16;101050.97;;;17.12;nan
12054;BME280;5638;50.860;4.698;2022-10-16T08:51:29;101075.63;;;17.28;nan
12054;BME280;5638;50.860;4.698;2022-10-16T08:54:29;101073.19;;;17.46;nan
12054;BME280;5638;50.860;4.698;2022-10-16T08:57:20;101070.72;;;17.64;nan
12054;BME280;5638;50.860;4.698;2022-10-16T08:59:47;101056.22;;;17.56;nan
12054;BME280;5638;50.860;4.698;2022-10-16T09:02:33;101063.91;;;17.82;nan
12054;BME280;5638;50.860;4.698;2022-10-16T09:14:36;101054.72;;;18.54;nan
12054;BME280;5638;50.860;4.698;2022-10-16T09:22:40;101080.63;;;19.20;nan
12054;BME280;5638;50.860;4.698;2022-10-16T09:25:20;101074.56;;;19.36;nan
12054;BME280;5638;50.860;4.698;2022-10-16T09:27:52;101075.00;;;19.65;nan
12054;BME280;5638;50.860;4.698;2022-10-16T09:30:21;101078.00;;;19.75;nan
12054;BME280;5638;50.860;4.698;2022-10-16T09:32:51;101090.41;;;19.71;nan
12054;BME280;5638;50.860;4.698;2022-10-16T09:35:31;101088.97;;;19.65;nan
12054;BME280;5638;50.860;4.698;2022-10-16T09:37:57;101089.38;;;19.56;nan
12054;BME280;5638;50.860;4.698;2022-10-16T09:40:31;101094.13;;;19.67;nan
12054;BME280;5638;50.860;4.698;2022-10-16T09:43:29;101083.88;;;19.80;nan
12054;BME280;5638;50.860;4.698;2022-10-16T09:46:02;101087.81;;;20.06;nan
12054;BME280;5638;50.860;4.698;2022-10-16T09:48:42;101095.47;;;20.10;nan
12054;BME280;5638;50.860;4.698;2022-10-16T09:51:38;101095.53;;;20.44;nan
12054;BME280;5638;50.860;4.698;2022-10-16T09:56:38;101090.00;;;20.32;nan
12054;BME280;5638;50.860;4.698;2022-10-16T09:59:13;101095.97;;;20.53;nan
12054;BME280;5638;50.860;4.698;2022-10-16T10:01:41;101095.47;;;20.62;nan
12054;BME280;5638;50.860;4.698;2022-10-16T10:04:09;101091.69;;;20.84;nan
12054;BME280;5638;50.860;4.698;2022-10-16T10:06:41;101102.38;;;20.81;nan
12054;BME280;5638;50.860;4.698;2022-10-16T10:09:21;101100.53;;;20.83;nan
12054;BME280;5638;50.860;4.698;2022-10-16T10:12:00;101105.19;;;20.94;nan
12054;BME280;5638;50.860;4.698;2022-10-16T10:19:39;101108.38;;;21.16;nan
12054;BME280;5638;50.860;4.698;2022-10-16T10:22:24;101114.72;;;21.45;nan
12054;BME280;5638;50.860;4.698;2022-10-16T10:38:56;101103.78;;;21.04;nan
12054;BME280;5638;50.860;4.698;2022-10-16T10:50:14;101115.03;;;21.55;nan
12054;BME280;5638;50.860;4.698;2022-10-16T10:53:33;101124.47;;;20.94;nan
12054;BME280;5638;50.860;4.698;2022-10-16T11:02:39;101122.97;;;21.85;nan
12054;BME280;5638;50.860;4.698;2022-10-16T11:05:31;101110.63;;;22.17;nan
12054;BME280;5638;50.860;4.698;2022-10-16T11:11:00;101109.94;;;21.52;nan
12054;BME280;5638;50.860;4.698;2022-10-16T11:13:38;101115.03;;;21.55;nan
12054;BME280;5638;50.860;4.698;2022-10-16T11:16:18;101118.19;;;21.61;nan
12054;BME280;5638;50.860;4.698;2022-10-16T11:18:51;101134.25;;;21.41;nan
12054;BME280;5638;50.860;4.698;2022-10-16T11:21:21;101120.00;;;21.12;nan
12054;BME280;5638;50.860;4.698;2022-10-16T11:23:57;101124.34;;;20.80;nan
12054;BME280;5638;50.860;4.698;2022-10-16T11:26:33;101106.63;;;20.50;nan
12054;BME280;5638;50.860;4.698;2022-10-16T11:29:03;101110.25;;;20.81;nan
12054;BME280;5638;50.860;4.698;2022-10-16T11:31:44;101117.50;;;21.42;nan
12054;BME280;5638;50.860;4.698;2022-10-16T11:34:38;101112.25;;;22.20;nan
12054;BME280;5638;50.860;4.698;2022-10-16T11:37:18;101099.28;;;22.45;nan
12054;BME280;5638;50.860;4.698;2022-10-16T11:39:45;101111.13;;;22.08;nan
12054;BME280;5638;50.860;4.698;2022-10-16T11:42:22;101112.94;;;21.92;nan
12054;BME280;5638;50.860;4.698;2022-10-16T11:51:02;101101.88;;;21.39;nan
12054;BME280;5638;50.860;4.698;2022-10-16T11:56:06;101113.59;;;21.33;nan
12054;BME280;5638;50.860;4.698;2022-10-16T12:04:19;101110.50;;;20.76;nan
12054;BME280;5638;50.860;4.698;2022-10-16T12:07:09;101119.38;;;20.58;nan
12054;BME280;5638;50.860;4.698;2022-10-16T12:09:40;101114.25;;;20.37;nan
12054;BME280;5638;50.860;4.698;2022-10-16T12:12:42;101099.50;;;20.18;nan
12054;BME280;5638;50.860;4.698;2022-10-16T12:15:31;101110.94;;;20.17;nan
12054;BME280;5638;50.860;4.698;2022-10-16T12:17:58;101118.59;;;20.21;nan
12054;BME280;5638;50.860;4.698;2022-10-16T12:20:31;101117.03;;;20.34;nan
12054;BME280;5638;50.860;4.698;2022-10-16T12:23:04;101104.69;;;20.36;nan
12054;BME280;5638;50.860;4.698;2022-10-16T12:25:35;101111.16;;;20.64;nan
12054;BME280;5638;50.860;4.698;2022-10-16T12:28:25;101084.25;;;20.59;nan
12054;BME280;5638;50.860;4.698;2022-10-16T12:31:07;101122.91;;;20.74;nan
12054;BME280;5638;50.860;4.698;2022-10-16T12:33:41;101117.69;;;20.57;nan
12054;BME280;5638;50.860;4.698;2022-10-16T12:36:28;101096.22;;;20.47;nan
12054;BME280;5638;50.860;4.698;2022-10-16T12:38:55;101117.25;;;20.47;nan
12054;BME280;5638;50.860;4.698;2022-10-16T12:41:33;101124.84;;;20.36;nan
12054;BME280;5638;50.860;4.698;2022-10-16T12:44:01;101127.03;;;20.28;nan
12054;BME280;5638;50.860;4.698;2022-10-16T12:49:31;101126.56;;;20.20;nan
12054;BME280;5638;50.860;4.698;2022-10-16T12:51:58;101120.00;;;20.11;nan
12054;BME280;5638;50.860;4.698;2022-10-16T12:54:35;101120.00;;;20.11;nan
12054;BME280;5638;50.860;4.698;2022-10-16T13:00:11;101127.06;;;20.09;nan
12054;BME280;5638;50.860;4.698;2022-10-16T13:17:37;101126.06;;;19.94;nan
12054;BME280;5638;50.860;4.698;2022-10-16T13:23:42;101137.22;;;20.17;nan
12054;BME280;5638;50.860;4.698;2022-10-16T13:26:48;101130.31;;;20.14;nan
12054;BME280;5638;50.860;4.698;2022-10-16T13:29:16;101139.75;;;20.18;nan
12054;BME280;5638;50.860;4.698;2022-10-16T13:31:43;101133.66;;;20.18;nan
12054;BME280;5638;50.860;4.698;2022-10-16T13:34:18;101126.22;;;20.08;nan
12054;BME280;5638;50.860;4.698;2022-10-16T13:36:51;101120.59;;;19.99;nan
12054;BME280;5638;50.860;4.698;2022-10-16T13:39:30;101128.47;;;19.99;nan
12054;BME280;5638;50.860;4.698;2022-10-16T13:42:07;101128.63;;;19.96;nan
12054;BME280;5638;50.860;4.698;2022-10-16T13:44:46;101114.56;;;20.14;nan
12054;BME280;5638;50.860;4.698;2022-10-16T13:47:31;101114.22;;;20.72;nan
12054;BME280;5638;50.860;4.698;2022-10-16T13:50:00;101132.16;;;20.81;nan
12054;BME280;5638;50.860;4.698;2022-10-16T13:52:27;101127.78;;;20.64;nan
12054;BME280;5638;50.860;4.698;2022-10-16T13:54:53;101127.06;;;20.44;nan
12054;BME280;5638;50.860;4.698;2022-10-16T13:57:24;101112.47;;;20.21;nan
12054;BME280;5638;50.860;4.698;2022-10-16T13:59:50;101096.34;;;20.28;nan
12054;BME280;5638;50.860;4.698;2022-10-16T14:02:38;101097.19;;;20.29;nan
12054;BME280;5638;50.860;4.698;2022-10-16T14:05:09;101101.41;;;20.14;nan
12054;BME280;5638;50.860;4.698;2022-10-16T14:07:37;101106.06;;;20.09;nan
12054;BME280;5638;50.860;4.698;2022-10-16T14:10:18;101110.94;;;20.17;nan
12054;BME280;5638;50.860;4.698;2022-10-16T14:12:56;101110.00;;;20.18;nan
12054;BME280;5638;50.860;4.698;2022-10-16T14:15:22;101100.44;;;19.99;nan
12054;BME280;5638;50.860;4.698;2022-10-16T14:17:51;101118.81;;;20.17;nan
12054;BME280;5638;50.860;4.698;2022-10-16T14:20:20;101114.88;;;20.08;nan
12054;BME280;5638;50.860;4.698;2022-10-16T14:23:03;101105.91;;;19.95;nan
12054;BME280;5638;50.860;4.698;2022-10-16T14:25:32;101115.94;;;19.86;nan
12054;BME280;5638;50.860;4.698;2022-10-16T14:28:19;101110.84;;;19.83;nan
12054;BME280;5638;50.860;4.698;2022-10-16T14:30:57;101107.72;;;19.75;nan
12054;BME280;5638;50.860;4.698;2022-10-16T14:33:32;101121.47;;;19.80;nan
12054;BME280;5638;50.860;4.698;2022-10-16T14:36:11;101108.97;;;19.85;nan
12054;BME280;5638;50.860;4.698;2022-10-16T14:38:48;101110.47;;;19.91;nan
12054;BME280;5638;50.860;4.698;2022-10-16T14:41:20;101096.00;;;19.82;nan
12054;BME280;5638;50.860;4.698;2022-10-16T14:43:53;101107.13;;;19.87;nan
12054;BME280;5638;50.860;4.698;2022-10-16T14:46:29;101111.88;;;19.98;nan
12054;BME280;5638;50.860;4.698;2022-10-16T14:49:20;101112.09;;;20.11;nan
12054;BME280;5638;50.860;4.698;2022-10-16T14:51:48;101108.16;;;20.02;nan
12054;BME280;5638;50.860;4.698;2022-10-16T14:54:16;101105.44;;;20.04;nan
12054;BME280;5638;50.860;4.698;2022-10-16T14:56:47;101109.63;;;20.08;nan
12054;BME280;5638;50.860;4.698;2022-10-16T14:59:27;101110.69;;;20.04;nan
12054;BME280;5638;50.860;4.698;2022-10-16T15:01:54;101108.69;;;19.92;nan
12054;BME280;5638;50.860;4.698;2022-10-16T15:04:20;101095.06;;;19.83;nan
12054;BME280;5638;50.860;4.698;2022-10-16T15:06:46;101089.50;;;19.89;nan
12054;BME280;5638;50.860;4.698;2022-10-16T15:09:12;101090.38;;;19.90;nan
12054;BME280;5638;50.860;4.698;2022-10-16T15:11:39;101087.75;;;19.90;nan
12054;BME280;5638;50.860;4.698;2022-10-16T15:14:05;101088.66;;;19.72;nan
12054;BME280;5638;50.860;4.698;2022-10-16T15:16:32;101097.06;;;19.61;nan
12054;BME280;5638;50.860;4.698;2022-10-16T15:18:58;101094.75;;;19.53;nan
12054;BME280;5638;50.860;4.698;2022-10-16T15:21:32;101100.78;;;19.74;nan
12054;BME280;5638;50.860;4.698;2022-10-16T15:24:00;101103.78;;;19.67;nan
12054;BME280;5638;50.860;4.698;2022-10-16T15:26:28;101098.66;;;19.63;nan
12054;BME280;5638;50.860;4.698;2022-10-16T15:28:54;101103.06;;;19.63;nan
12054;BME280;5638;50.860;4.698;2022-10-16T15:31:27;101101.22;;;19.65;nan
12054;BME280;5638;50.860;4.698;2022-10-16T15:33:56;101094.53;;;19.58;nan
12054;BME280;5638;50.860;4.698;2022-10-16T15:36:34;101090.28;;;19.74;nan
12054;BME280;5638;50.860;4.698;2022-10-16T15:39:13;101078.69;;;19.59;nan
12054;BME280;5638;50.860;4.698;2022-10-16T15:41:39;101072.34;;;19.46;nan